createdAt,value
2022-09-26T00:01:42.587Z,100.00
2022-09-26T00:04:15.899Z,100.00
2022-09-26T00:06:44.490Z,100.00
2022-09-26T00:09:15.348Z,100.00
2022-09-26T00:11:45.339Z,100.00
2022-09-26T00:14:15.361Z,100.00
2022-09-26T00:16:44.033Z,100.00
2022-09-26T00:19:12.439Z,100.00
2022-09-26T00:21:40.958Z,100.00
2022-09-26T00:24:09.712Z,100.00
2022-09-26T00:26:39.510Z,100.00
2022-09-26T00:29:10.603Z,100.00
2022-09-26T00:31:40.954Z,100.00
2022-09-26T00:34:10.939Z,100.00
2022-09-26T00:36:39.318Z,100.00
2022-09-26T00:39:08.494Z,100.00
2022-09-26T00:41:37.666Z,100.00
2022-09-26T00:44:36.456Z,100.00
2022-09-26T00:47:05.492Z,100.00
2022-09-26T00:49:35.272Z,100.00
2022-09-26T00:52:06.865Z,100.00
2022-09-26T00:54:35.902Z,100.00
2022-09-26T00:57:10.949Z,100.00
2022-09-26T00:59:46.601Z,100.00
2022-09-26T01:02:15.675Z,100.00
2022-09-26T01:04:45.712Z,100.00
2022-09-26T01:07:20.182Z,100.00
2022-09-26T01:09:48.977Z,100.00
2022-09-26T01:12:17.975Z,100.00
2022-09-26T01:14:48.552Z,100.00
2022-09-26T01:17:16.676Z,100.00
2022-09-26T01:19:50.850Z,100.00
2022-09-26T01:23:05.831Z,100.00
2022-09-26T01:25:56.441Z,100.00
2022-09-26T01:28:36.483Z,100.00
2022-09-26T01:31:16.047Z,100.00
2022-09-26T01:33:52.157Z,100.00
2022-09-26T01:36:51.646Z,100.00
2022-09-26T01:39:41.868Z,100.00
2022-09-26T01:42:18.141Z,100.00
2022-09-26T01:44:51.438Z,100.00
2022-09-26T01:47:24.294Z,100.00
2022-09-26T01:49:56.169Z,100.00
2022-09-26T01:52:30.493Z,100.00
2022-09-26T01:55:03.296Z,100.00
2022-09-26T01:57:33.628Z,100.00
2022-09-26T02:00:05.605Z,100.00
2022-09-26T02:02:39.844Z,100.00
2022-09-26T02:05:10.330Z,100.00
2022-09-26T02:07:41.523Z,100.00
2022-09-26T02:10:13.405Z,100.00
2022-09-26T02:12:43.186Z,100.00
2022-09-26T02:15:15.312Z,100.00
2022-09-26T02:17:48.753Z,100.00
2022-09-26T02:20:20.487Z,100.00
2022-09-26T02:22:48.980Z,100.00
2022-09-26T02:25:18.313Z,100.00
2022-09-26T02:27:46.745Z,100.00
2022-09-26T02:30:15.144Z,100.00
2022-09-26T02:32:44.824Z,100.00
2022-09-26T02:35:30.119Z,100.00
2022-09-26T02:37:59.244Z,100.00
2022-09-26T02:40:35.359Z,100.00
2022-09-26T02:43:12.482Z,100.00
2022-09-26T02:45:44.920Z,100.00
2022-09-26T02:48:23.232Z,100.00
2022-09-26T02:51:02.729Z,100.00
2022-09-26T02:53:48.482Z,100.00
2022-09-26T02:56:23.546Z,100.00
2022-09-26T02:59:11.386Z,100.00
2022-09-26T03:01:43.826Z,100.00
2022-09-26T03:04:16.596Z,100.00
2022-09-26T03:06:47.484Z,100.00
2022-09-26T03:09:17.128Z,100.00
2022-09-26T03:11:45.743Z,100.00
2022-09-26T03:14:14.968Z,100.00
2022-09-26T03:16:45.650Z,100.00
2022-09-26T03:19:19.824Z,100.00
2022-09-26T03:21:48.357Z,100.00
2022-09-26T03:24:17.417Z,100.00
2022-09-26T03:26:46.623Z,100.00
2022-09-26T03:29:15.140Z,100.00
2022-09-26T03:31:45.158Z,100.00
2022-09-26T03:34:13.673Z,100.00
2022-09-26T03:36:43.522Z,100.00
2022-09-26T03:39:11.883Z,100.00
2022-09-26T03:41:40.283Z,100.00
2022-09-26T03:44:08.587Z,100.00
2022-09-26T03:46:40.004Z,100.00
2022-09-26T03:49:08.570Z,100.00
2022-09-26T03:51:36.861Z,100.00
2022-09-26T03:54:06.582Z,100.00
2022-09-26T03:56:34.970Z,100.00
2022-09-26T03:59:03.457Z,100.00
2022-09-26T04:01:31.835Z,100.00
2022-09-26T04:04:00.150Z,100.00
2022-09-26T04:06:28.963Z,100.00
2022-09-26T04:08:57.487Z,100.00
2022-09-26T04:11:27.224Z,100.00
2022-09-26T04:13:55.664Z,100.00
2022-09-26T04:16:24.683Z,100.00
2022-09-26T04:18:56.752Z,100.00
2022-09-26T04:21:26.079Z,100.00
2022-09-26T04:23:55.246Z,100.00
2022-09-26T04:26:24.749Z,100.00
2022-09-26T04:28:56.589Z,100.00
2022-09-26T04:31:27.575Z,100.00
2022-09-26T04:33:56.206Z,100.00
2022-09-26T04:36:24.916Z,100.00
2022-09-26T04:38:53.295Z,100.00
2022-09-26T04:41:22.834Z,100.00
2022-09-26T04:43:51.153Z,100.00
2022-09-26T04:46:26.929Z,100.00
2022-09-26T04:48:59.882Z,100.00
2022-09-26T04:51:29.460Z,100.00
2022-09-26T04:53:58.089Z,100.00
2022-09-26T04:56:28.000Z,100.00
2022-09-26T04:58:57.559Z,100.00
2022-09-26T05:01:27.763Z,100.00
2022-09-26T05:04:28.003Z,100.00
2022-09-26T05:06:57.911Z,100.00
2022-09-26T05:09:26.503Z,100.00
2022-09-26T05:11:54.871Z,100.00
2022-09-26T05:14:23.336Z,100.00
2022-09-26T05:16:53.506Z,100.00
2022-09-26T05:19:22.259Z,100.00
2022-09-26T05:21:51.591Z,100.00
2022-09-26T05:24:37.416Z,100.00
2022-09-26T05:27:06.995Z,100.00
2022-09-26T05:29:35.308Z,100.00
2022-09-26T05:32:05.041Z,100.00
2022-09-26T05:37:26.033Z,100.00
2022-09-26T05:40:12.091Z,100.00
2022-09-26T05:42:40.578Z,100.00
2022-09-26T05:45:09.674Z,100.00
2022-09-26T05:47:39.441Z,100.00
2022-09-26T05:50:09.953Z,100.00
2022-09-26T05:52:39.009Z,100.00
2022-09-26T05:55:08.188Z,100.00
2022-09-26T05:57:36.521Z,100.00
2022-09-26T06:00:05.897Z,100.00
2022-09-26T06:02:34.908Z,100.00
2022-09-26T06:05:05.240Z,100.00
2022-09-26T06:07:34.001Z,100.00
2022-09-26T06:10:05.493Z,100.00
2022-09-26T06:12:35.612Z,100.00
2022-09-26T06:15:03.925Z,100.00
2022-09-26T06:17:32.308Z,100.00
2022-09-26T06:20:00.605Z,100.00
2022-09-26T06:22:30.334Z,100.00
2022-09-26T06:24:59.076Z,100.00
2022-09-26T06:27:27.416Z,100.00
2022-09-26T06:29:55.864Z,100.00
2022-09-26T06:32:24.163Z,100.00
2022-09-26T06:34:52.464Z,100.00
2022-09-26T06:37:21.083Z,100.00
2022-09-26T06:39:53.638Z,100.00
2022-09-26T06:42:24.988Z,100.00
2022-09-26T06:44:53.569Z,100.00
2022-09-26T06:47:22.211Z,100.00
2022-09-26T06:49:50.537Z,100.00
2022-09-26T06:52:18.855Z,100.00
2022-09-26T06:54:47.114Z,100.00
2022-09-26T06:57:16.959Z,100.00
2022-09-26T06:59:45.329Z,100.00
2022-09-26T07:02:16.343Z,100.00
2022-09-26T07:04:44.776Z,100.00
2022-09-26T07:07:13.074Z,100.00
2022-09-26T07:09:41.456Z,100.00
2022-09-26T07:12:14.997Z,100.00
2022-09-26T07:14:48.868Z,100.00
2022-09-26T07:17:21.284Z,100.00
2022-09-26T07:19:53.387Z,100.00
2022-09-26T07:22:21.663Z,100.00
2022-09-26T07:24:50.669Z,100.00
2022-09-26T07:27:18.977Z,100.00
2022-09-26T07:29:49.025Z,100.00
2022-09-26T07:32:17.422Z,100.00
2022-09-26T07:34:45.719Z,100.00
2022-09-26T07:37:14.316Z,100.00
2022-09-26T07:39:42.643Z,100.00
2022-09-26T07:42:11.011Z,100.00
2022-09-26T07:45:19.640Z,100.00
2022-09-26T07:47:51.051Z,100.00
2022-09-26T07:50:19.396Z,100.00
2022-09-26T07:52:50.157Z,96.35
2022-09-26T07:55:19.764Z,100.00
2022-09-26T07:57:50.184Z,100.00
2022-09-26T08:00:19.609Z,100.00
2022-09-26T08:02:50.871Z,100.00
2022-09-26T08:05:20.644Z,100.00
2022-09-26T08:07:50.019Z,100.00
2022-09-26T08:10:22.112Z,100.00
2022-09-26T08:12:51.054Z,100.00
2022-09-26T08:15:19.673Z,100.00
2022-09-26T08:17:49.528Z,100.00
2022-09-26T08:20:18.393Z,100.00
2022-09-26T08:22:46.739Z,100.00
2022-09-26T08:25:15.108Z,100.00
2022-09-26T08:27:44.960Z,100.00
2022-09-26T08:30:13.586Z,95.48
2022-09-26T08:32:42.327Z,100.00
2022-09-26T08:35:12.349Z,90.72
2022-09-26T08:37:40.783Z,96.06
2022-09-26T08:40:10.069Z,93.29
2022-09-26T08:42:46.277Z,100.00
2022-09-26T08:45:53.732Z,93.46
2022-09-26T08:48:32.897Z,94.48
2022-09-26T08:51:12.304Z,88.94
2022-09-26T08:53:44.538Z,98.74
2022-09-26T08:56:20.330Z,100.00
2022-09-26T08:58:52.370Z,92.96
2022-09-26T09:01:26.570Z,100.00
2022-09-26T09:03:59.540Z,100.00
2022-09-26T09:06:29.956Z,100.00
2022-09-26T09:08:58.591Z,100.00
2022-09-26T09:11:43.366Z,92.41
2022-09-26T09:14:18.965Z,100.00
2022-09-26T09:16:56.076Z,93.13
2022-09-26T09:19:38.981Z,83.70
2022-09-26T09:22:29.068Z,78.12
2022-09-26T09:25:00.686Z,81.39
2022-09-26T09:28:03.951Z,83.76
2022-09-26T09:30:37.555Z,83.56
2022-09-26T09:33:09.978Z,86.88
2022-09-26T09:35:42.196Z,74.45
2022-09-26T09:38:16.280Z,84.47
2022-09-26T09:40:50.107Z,95.75
2022-09-26T09:43:26.857Z,78.47
2022-09-26T09:45:57.377Z,81.41
2022-09-26T09:48:26.687Z,87.39
2022-09-26T09:51:05.638Z,80.22
2022-09-26T09:53:53.028Z,85.25
2022-09-26T09:56:27.496Z,69.62
2022-09-26T09:59:11.371Z,68.42
2022-09-26T10:01:42.439Z,63.87
2022-09-26T10:04:22.194Z,61.09
2022-09-26T10:06:52.903Z,58.37
2022-09-26T10:09:36.067Z,63.44
2022-09-26T10:12:14.547Z,59.39
2022-09-26T10:14:47.693Z,59.14
2022-09-26T10:17:25.387Z,64.83
2022-09-26T10:19:53.724Z,63.71
2022-09-26T10:22:29.416Z,66.20
2022-09-26T10:25:08.526Z,72.30
2022-09-26T10:27:38.526Z,61.20
2022-09-26T10:30:25.676Z,66.92
2022-09-26T10:32:57.021Z,61.75
2022-09-26T10:35:28.925Z,75.71
2022-09-26T10:38:01.858Z,68.08
2022-09-26T10:40:45.806Z,66.89
2022-09-26T10:43:23.739Z,69.94
2022-09-26T10:45:54.850Z,63.86
2022-09-26T10:48:36.042Z,64.24
2022-09-26T10:51:04.713Z,63.65
2022-09-26T10:53:38.538Z,56.94
2022-09-26T10:56:12.167Z,56.68
2022-09-26T10:58:43.150Z,58.74
2022-09-26T11:01:21.010Z,73.06
2022-09-26T11:03:50.470Z,100.00
2022-09-26T11:06:27.274Z,100.00
2022-09-26T11:09:03.057Z,100.00
2022-09-26T11:11:38.103Z,100.00
2022-09-26T11:14:08.651Z,100.00
2022-09-26T11:16:41.778Z,100.00
2022-09-26T11:19:14.412Z,100.00
2022-09-26T11:21:46.288Z,100.00
2022-09-26T11:24:19.997Z,100.00
2022-09-26T11:27:00.862Z,100.00
2022-09-26T11:29:41.885Z,100.00
2022-09-26T11:32:14.857Z,100.00
2022-09-26T11:34:43.230Z,100.00
2022-09-26T11:37:30.862Z,100.00
2022-09-26T11:40:24.347Z,100.00
2022-09-26T11:43:06.873Z,100.00
2022-09-26T11:45:46.559Z,100.00
2022-09-26T11:48:21.915Z,100.00
2022-09-26T11:50:56.736Z,76.19
2022-09-26T11:53:44.788Z,95.57
2022-09-26T11:56:30.057Z,95.00
2022-09-26T11:59:07.272Z,83.86
2022-09-26T12:01:42.215Z,77.85
2022-09-26T12:04:45.327Z,69.83
2022-09-26T12:07:18.721Z,90.99
2022-09-26T12:10:07.375Z,78.49
2022-09-26T12:12:42.478Z,84.75
2022-09-26T12:15:23.872Z,79.18
2022-09-26T12:18:04.870Z,75.24
2022-09-26T12:20:37.686Z,82.76
2022-09-26T12:23:14.324Z,70.12
2022-09-26T12:25:55.805Z,75.54
2022-09-26T12:28:35.256Z,75.05
2022-09-26T12:31:12.464Z,68.06
2022-09-26T12:33:56.754Z,74.71
2022-09-26T12:36:37.761Z,69.10
2022-09-26T12:39:16.851Z,64.82
2022-09-26T12:41:58.703Z,76.90
2022-09-26T12:44:41.511Z,73.69
2022-09-26T12:47:34.809Z,73.78
2022-09-26T12:50:18.073Z,71.52
2022-09-26T12:53:11.429Z,79.89
2022-09-26T12:55:45.069Z,77.12
2022-09-26T12:58:24.942Z,77.65
2022-09-26T13:00:58.891Z,82.52
2022-09-26T13:03:42.786Z,96.97
2022-09-26T13:06:34.611Z,86.52
2022-09-26T13:09:19.593Z,97.42
2022-09-26T13:12:00.240Z,75.17
2022-09-26T13:14:43.383Z,62.52
2022-09-26T13:17:15.682Z,59.48
2022-09-26T13:19:51.686Z,69.00
2022-09-26T13:22:27.795Z,63.59
2022-09-26T13:24:58.565Z,66.63
2022-09-26T13:27:34.257Z,61.12
2022-09-26T13:30:06.190Z,60.12
2022-09-26T13:32:47.650Z,55.34
2022-09-26T13:35:24.804Z,54.40
2022-09-26T13:38:14.517Z,49.45
2022-09-26T13:40:46.644Z,53.48
2022-09-26T13:43:24.515Z,48.39
2022-09-26T13:46:02.347Z,50.42
2022-09-26T13:48:38.543Z,52.50
2022-09-26T13:51:19.296Z,55.59
2022-09-26T13:53:55.858Z,52.90
2022-09-26T13:56:41.238Z,50.37
2022-09-26T13:59:28.717Z,55.10
2022-09-26T14:02:17.644Z,53.45
2022-09-26T14:04:46.622Z,54.08
2022-09-26T14:07:35.516Z,51.31
2022-09-26T14:10:21.611Z,55.15
2022-09-26T14:13:09.137Z,54.95
2022-09-26T14:15:59.896Z,53.84
2022-09-26T14:18:47.259Z,52.78
2022-09-26T14:21:33.527Z,49.58
2022-09-26T14:24:35.785Z,54.24
2022-09-26T14:27:07.046Z,51.32
2022-09-26T14:29:48.788Z,53.49
2022-09-26T14:32:18.705Z,52.89
2022-09-26T14:34:48.389Z,49.57
2022-09-26T14:37:32.487Z,53.43
2022-09-26T14:40:26.501Z,51.12
2022-09-26T14:43:03.018Z,51.21
2022-09-26T14:45:50.475Z,53.88
2022-09-26T14:48:28.598Z,51.35
2022-09-26T14:51:01.827Z,49.77
2022-09-26T14:53:34.977Z,48.46
2022-09-26T14:56:07.232Z,49.27
2022-09-26T14:58:48.741Z,49.83
2022-09-26T15:01:27.074Z,51.35
2022-09-26T15:03:58.050Z,51.57
2022-09-26T15:06:27.836Z,52.07
2022-09-26T15:08:59.322Z,48.64
2022-09-26T15:11:34.884Z,48.66
2022-09-26T15:14:12.431Z,48.97
2022-09-26T15:16:44.345Z,49.34
2022-09-26T15:19:14.847Z,52.38
2022-09-26T15:21:43.424Z,50.91
2022-09-26T15:24:26.480Z,51.79
2022-09-26T15:26:58.496Z,51.58
2022-09-26T15:29:27.650Z,49.23
2022-09-26T15:31:57.649Z,52.33
2022-09-26T15:34:35.095Z,53.93
2022-09-26T15:37:10.259Z,54.35
2022-09-26T15:39:43.094Z,51.44
2022-09-26T15:42:45.710Z,52.47
2022-09-26T15:45:25.691Z,56.40
2022-09-26T15:47:55.402Z,55.02
2022-09-26T15:50:27.392Z,55.66
2022-09-26T15:52:59.457Z,54.63
2022-09-26T15:55:29.469Z,55.50
2022-09-26T15:58:00.801Z,56.04
2022-09-26T16:00:32.668Z,57.76
2022-09-26T16:03:29.429Z,59.94
2022-09-26T16:05:57.871Z,62.08
2022-09-26T16:08:29.161Z,59.01
2022-09-26T16:10:58.892Z,59.56
2022-09-26T16:13:32.771Z,60.21
2022-09-26T16:16:04.036Z,59.06
2022-09-26T16:18:39.641Z,59.27
2022-09-26T16:21:19.096Z,66.36
2022-09-26T16:23:49.388Z,61.79
2022-09-26T16:26:23.475Z,64.10
2022-09-26T16:28:54.470Z,62.04
2022-09-26T16:31:45.931Z,63.59
2022-09-26T16:34:22.368Z,62.65
2022-09-26T16:36:51.542Z,57.81
2022-09-26T16:39:22.570Z,62.20
2022-09-26T16:42:02.425Z,62.62
2022-09-26T16:44:36.360Z,66.37
2022-09-26T16:47:07.635Z,62.20
2022-09-26T16:49:45.730Z,66.04
2022-09-26T16:52:38.113Z,68.43
2022-09-26T16:55:07.885Z,76.64
2022-09-26T16:57:39.076Z,82.04
2022-09-26T17:00:34.743Z,82.33
2022-09-26T17:03:03.504Z,81.09
2022-09-26T17:05:31.943Z,74.33
2022-09-26T17:08:00.481Z,81.00
2022-09-26T17:10:28.902Z,76.79
2022-09-26T17:13:02.641Z,76.06
2022-09-26T17:15:34.532Z,77.83
2022-09-26T17:18:03.916Z,78.68
2022-09-26T17:20:32.405Z,80.08
2022-09-26T17:23:16.836Z,80.78
2022-09-26T17:25:55.375Z,81.53
2022-09-26T17:28:32.431Z,77.97
2022-09-26T17:31:06.533Z,83.13
2022-09-26T17:33:35.805Z,87.16
2022-09-26T17:36:04.309Z,79.35
2022-09-26T17:38:35.624Z,78.97
2022-09-26T17:41:07.426Z,83.39
2022-09-26T17:43:36.028Z,86.44
2022-09-26T17:46:06.376Z,82.24
2022-09-26T17:48:35.734Z,81.50
2022-09-26T17:51:05.883Z,82.32
2022-09-26T17:53:49.548Z,81.08
2022-09-26T17:56:19.343Z,85.63
2022-09-26T17:58:49.186Z,90.85
2022-09-26T18:01:24.109Z,76.50
2022-09-26T18:03:56.231Z,82.86
2022-09-26T18:06:26.845Z,84.95
2022-09-26T18:08:59.662Z,77.07
2022-09-26T18:11:29.272Z,89.87
2022-09-26T18:14:03.469Z,82.16
2022-09-26T18:16:36.060Z,81.33
2022-09-26T18:19:07.589Z,81.05
2022-09-26T18:21:36.616Z,79.49
2022-09-26T18:24:06.886Z,92.30
2022-09-26T18:26:37.888Z,78.96
2022-09-26T18:29:08.203Z,73.82
2022-09-26T18:31:41.152Z,74.35
2022-09-26T18:34:16.512Z,74.84
2022-09-26T18:36:45.390Z,83.53
2022-09-26T18:39:14.585Z,77.17
2022-09-26T18:41:45.089Z,81.60
2022-09-26T18:44:16.972Z,74.33
2022-09-26T18:46:48.225Z,78.61
2022-09-26T18:49:16.842Z,83.26
2022-09-26T18:51:46.399Z,80.12
2022-09-26T18:54:17.259Z,84.08
2022-09-26T18:57:03.519Z,77.79
2022-09-26T18:59:32.305Z,79.80
2022-09-26T19:02:02.808Z,75.16
2022-09-26T19:04:31.676Z,73.12
2022-09-26T19:07:02.074Z,78.29
2022-09-26T19:09:34.467Z,83.37
2022-09-26T19:12:03.632Z,75.58
2022-09-26T19:14:32.701Z,71.68
2022-09-26T19:17:02.956Z,70.93
2022-09-26T19:19:32.580Z,73.18
2022-09-26T19:22:03.266Z,73.18
2022-09-26T19:24:32.289Z,69.63
2022-09-26T19:27:06.068Z,70.56
2022-09-26T19:29:38.215Z,77.13
2022-09-26T19:32:08.546Z,75.52
2022-09-26T19:34:36.929Z,77.02
2022-09-26T19:37:06.430Z,74.58
2022-09-26T19:39:34.854Z,77.92
2022-09-26T19:42:03.335Z,77.10
2022-09-26T19:44:33.112Z,80.30
2022-09-26T19:47:04.809Z,79.43
2022-09-26T19:49:34.647Z,81.27
2022-09-26T19:52:03.108Z,72.72
2022-09-26T19:54:31.557Z,72.74
2022-09-26T19:57:00.344Z,67.62
2022-09-26T19:59:28.806Z,66.22
2022-09-26T20:01:57.450Z,68.77
2022-09-26T20:04:26.004Z,66.38
2022-09-26T20:06:55.879Z,65.57
2022-09-26T20:09:24.249Z,67.68
2022-09-26T20:11:52.658Z,69.46
2022-09-26T20:14:27.136Z,67.40
2022-09-26T20:16:57.537Z,69.99
2022-09-26T20:19:32.080Z,86.09
2022-09-26T20:22:03.252Z,95.97
2022-09-26T20:24:33.312Z,95.62
2022-09-26T20:27:03.666Z,77.92
2022-09-26T20:29:52.061Z,75.89
2022-09-26T20:32:20.735Z,76.26
2022-09-26T20:34:49.495Z,79.60
2022-09-26T20:37:19.846Z,82.71
2022-09-26T20:39:48.314Z,77.34
2022-09-26T20:42:18.878Z,76.75
2022-09-26T20:44:47.637Z,73.07
2022-09-26T20:47:19.687Z,76.70
2022-09-26T20:49:52.527Z,76.98
2022-09-26T20:52:24.189Z,81.28
2022-09-26T20:54:53.224Z,85.55
2022-09-26T20:57:22.295Z,85.35
2022-09-26T20:59:51.323Z,77.64
2022-09-26T21:02:28.559Z,80.72
2022-09-26T21:04:57.677Z,77.89
2022-09-26T21:07:27.443Z,76.47
2022-09-26T21:09:55.834Z,76.95
2022-09-26T21:12:24.282Z,78.31
2022-09-26T21:14:52.638Z,78.79
2022-09-26T21:17:22.947Z,78.48
2022-09-26T21:19:51.516Z,76.86
2022-09-26T21:22:20.637Z,75.84
2022-09-26T21:24:50.592Z,88.24
2022-09-26T21:27:18.989Z,79.89
2022-09-26T21:29:47.331Z,83.79
2022-09-26T21:32:17.869Z,84.17
2022-09-26T21:34:46.852Z,75.84
2022-09-26T21:37:15.112Z,75.84
2022-09-26T21:39:43.763Z,79.54
2022-09-26T21:42:13.666Z,78.87
2022-09-26T21:44:44.974Z,82.38
2022-09-26T21:47:13.821Z,94.73
2022-09-26T21:49:42.345Z,90.91
2022-09-26T21:52:12.737Z,96.29
2022-09-26T21:54:43.761Z,88.09
2022-09-26T21:57:15.676Z,85.87
2022-09-26T21:59:44.182Z,84.38
2022-09-26T22:02:12.722Z,99.31
2022-09-26T22:04:41.126Z,85.22
2022-09-26T22:07:09.520Z,82.31
2022-09-26T22:09:37.901Z,96.09
2022-09-26T22:12:06.319Z,84.94
2022-09-26T22:14:36.436Z,82.71
2022-09-26T22:17:04.921Z,87.13
2022-09-26T22:19:35.203Z,81.77
2022-09-26T22:22:04.218Z,91.70
2022-09-26T22:24:33.307Z,81.26
2022-09-26T22:27:01.669Z,80.86
2022-09-26T22:29:30.065Z,81.63
2022-09-26T22:31:59.869Z,76.62
2022-09-26T22:34:28.239Z,79.15
2022-09-26T22:36:56.869Z,82.44
2022-09-26T22:39:25.269Z,80.82
2022-09-26T22:41:53.862Z,89.62
2022-09-26T22:44:22.553Z,80.73
2022-09-26T22:46:50.906Z,77.17
2022-09-26T22:49:20.729Z,76.44
2022-09-26T22:51:49.114Z,78.77
2022-09-26T22:54:17.684Z,79.25
2022-09-26T22:56:46.036Z,90.41
2022-09-26T22:59:14.633Z,86.16
2022-09-26T23:01:43.617Z,77.01
2022-09-26T23:04:12.072Z,78.42
2022-09-26T23:06:41.818Z,89.07
2022-09-26T23:09:10.240Z,81.80
2022-09-26T23:11:38.687Z,77.74
2022-09-26T23:14:07.073Z,83.57
2022-09-26T23:16:35.511Z,74.02
2022-09-26T23:19:04.037Z,85.76
2022-09-26T23:21:32.421Z,81.19
2022-09-26T23:24:02.638Z,84.03
2022-09-26T23:26:32.509Z,85.85
2022-09-26T23:29:01.233Z,91.01
2022-09-26T23:31:29.894Z,85.91
2022-09-26T23:33:58.609Z,86.51
2022-09-26T23:36:27.320Z,89.28
2022-09-26T23:38:58.074Z,99.95
2022-09-26T23:41:27.839Z,91.35
2022-09-26T23:43:56.197Z,77.39
2022-09-26T23:46:24.581Z,97.66
2022-09-26T23:48:53.043Z,82.22
2022-09-26T23:51:21.731Z,83.40
2022-09-26T23:53:50.141Z,80.42
2022-09-26T23:56:18.919Z,75.05
2022-09-26T23:58:49.026Z,75.24
